Time;durP1;ratioP1;P1;durP2;ratioP2;P2;SDS_P1;SDS_P2;PMS_P1;PMS_P2;Temp;Humidity;BMP_temperature;BMP_pressure;BME280_temperature;BME280_humidity;BME280_pressure;Samples;Min_cycle;Max_cycle;Signal;HPM_P1;HPM_P2
2021/07/08 00:01:34;;;;;;;9.40;6.03;;;;;;;21.99;70.13;98742.27;126478;1093;26290;-81
2021/07/08 00:04:16;;;;;;;8.35;5.10;;;;;;;21.91;70.49;98737.48;126483;1093;22784;-81
2021/07/08 00:06:57;;;;;;;9.05;5.20;;;;;;;21.89;70.30;98742.52;126494;1093;24517;-81
2021/07/08 00:09:25;;;;;;;12.03;5.70;;;;;;;21.82;70.25;98750.45;126285;1093;22780;-81
2021/07/08 00:12:08;;;;;;;9.38;5.33;;;;;;;21.74;70.61;98746.45;126445;1092;22911;-81
2021/07/08 00:14:49;;;;;;;6.95;4.75;;;;;;;21.70;70.90;98749.03;126541;1093;22787;-81
2021/07/08 00:17:17;;;;;;;10.58;4.95;;;;;;;21.66;70.59;98752.75;126493;1093;27288;-81
2021/07/08 00:19:58;;;;;;;11.25;4.43;;;;;;;21.61;70.50;98760.02;126465;1093;22803;-81
2021/07/08 00:22:26;;;;;;;6.30;4.65;;;;;;;21.57;70.52;98756.24;126617;1093;24584;-81
2021/07/08 00:24:53;;;;;;;6.97;5.10;;;;;;;21.54;70.38;98754.09;126514;1092;25899;-81
2021/07/08 00:27:35;;;;;;;7.68;5.15;;;;;;;21.49;70.71;98745.06;126487;1092;22781;-81
2021/07/08 00:30:05;;;;;;;5.70;4.67;;;;;;;21.42;70.79;98737.98;126528;1092;22784;-81
2021/07/08 00:32:33;;;;;;;7.30;4.70;;;;;;;21.37;70.55;98745.55;126543;1092;22834;-81
2021/07/08 00:35:00;;;;;;;4.67;3.90;;;;;;;21.29;70.65;98757.38;126538;1092;25895;-81
2021/07/08 00:37:28;;;;;;;7.35;4.78;;;;;;;21.21;71.11;98745.89;126477;1093;22744;-81
2021/07/08 00:39:55;;;;;;;7.95;4.98;;;;;;;21.14;71.26;98739.11;126416;1093;22798;-81
2021/07/08 00:42:38;;;;;;;9.03;4.98;;;;;;;21.04;71.57;98757.58;126512;1093;22784;-81
2021/07/08 00:45:09;;;;;;;9.13;5.05;;;;;;;20.99;71.92;98757.67;126718;1092;22918;-81
2021/07/08 00:47:37;;;;;;;9.40;4.93;;;;;;;20.94;71.88;98760.53;126532;1092;22781;-81
2021/07/08 00:50:07;;;;;;;7.48;4.70;;;;;;;20.89;71.92;98763.39;126494;1093;22838;-81
2021/07/08 00:52:49;;;;;;;12.03;5.05;;;;;;;20.88;72.23;98772.03;126525;1093;22766;-81
2021/07/08 00:55:31;;;;;;;9.30;5.05;;;;;;;20.85;72.38;98778.98;126610;1092;26239;-81
2021/07/08 00:58:17;;;;;;;8.17;4.97;;;;;;;20.83;72.35;98782.05;126322;1092;24464;-81
2021/07/08 01:01:00;;;;;;;8.90;5.23;;;;;;;20.82;72.14;98774.89;126467;1092;22762;-81
2021/07/08 01:03:41;;;;;;;10.38;5.40;;;;;;;20.81;72.25;98772.42;126511;1093;23723;-81
2021/07/08 01:06:25;;;;;;;7.15;4.35;;;;;;;20.77;72.47;98774.14;126668;1091;22751;-81
2021/07/08 01:09:06;;;;;;;11.78;5.00;;;;;;;20.73;72.27;98773.11;126466;1093;22762;-81
2021/07/08 01:11:48;;;;;;;11.68;5.40;;;;;;;20.70;72.48;98782.02;126472;1093;22754;-81
2021/07/08 01:14:29;;;;;;;9.03;4.48;;;;;;;20.61;72.31;98776.33;126177;1093;22838;-81
2021/07/08 01:16:57;;;;;;;10.90;5.00;;;;;;;20.55;72.51;98778.37;126209;1093;26283;-81
2021/07/08 01:19:41;;;;;;;9.20;5.10;;;;;;;20.48;72.66;98775.98;126160;1093;22775;-81
2021/07/08 01:22:09;;;;;;;6.08;4.80;;;;;;;20.43;72.98;98773.33;126250;1093;22758;-81
2021/07/08 01:24:50;;;;;;;6.65;4.60;;;;;;;20.35;73.00;98774.01;126048;1093;27552;-81
2021/07/08 01:27:18;;;;;;;6.63;4.25;;;;;;;20.32;73.26;98776.56;126202;1093;22754;-81
2021/07/08 01:30:00;;;;;;;9.55;4.93;;;;;;;20.25;73.11;98780.52;126214;1093;26312;-82
2021/07/08 01:32:27;;;;;;;7.68;4.60;;;;;;;20.18;73.53;98782.84;126170;1092;25868;-81
2021/07/08 01:34:55;;;;;;;5.10;4.60;;;;;;;20.03;73.47;98781.14;126039;1093;23197;-81
2021/07/08 01:37:23;;;;;;;10.60;4.80;;;;;;;19.89;73.79;98781.06;126169;1091;27188;-81
2021/07/08 01:39:51;;;;;;;7.60;4.20;;;;;;;19.78;74.24;98778.73;126209;1093;22803;-81
2021/07/08 01:42:18;;;;;;;7.73;4.60;;;;;;;19.68;74.59;98782.45;126057;1093;24399;-81
2021/07/08 01:44:46;;;;;;;10.53;4.68;;;;;;;19.63;74.72;98779.75;126237;1093;27315;-81
2021/07/08 01:47:27;;;;;;;11.68;5.80;;;;;;;19.58;74.93;98779.81;126184;1093;25986;-81
2021/07/08 01:49:54;;;;;;;10.88;5.45;;;;;;;19.53;75.10;98780.72;126164;1093;27306;-81
2021/07/08 01:52:22;;;;;;;7.83;4.93;;;;;;;19.51;75.19;98774.64;126049;1093;23005;-81
2021/07/08 01:54:50;;;;;;;11.37;4.73;;;;;;;19.48;75.25;98776.07;126151;1093;22831;-81
2021/07/08 01:57:17;;;;;;;7.90;4.98;;;;;;;19.49;75.20;98785.98;126139;1093;22799;-81
2021/07/08 01:59:59;;;;;;;10.75;5.05;;;;;;;19.48;75.36;98773.31;126211;1093;22808;-81
2021/07/08 02:02:28;;;;;;;10.90;4.93;;;;;;;19.49;75.44;98774.94;126222;1093;25864;-81
2021/07/08 02:05:13;;;;;;;11.30;5.58;;;;;;;19.46;75.50;98778.31;126149;1093;22742;-81
2021/07/08 02:07:54;;;;;;;6.03;4.50;;;;;;;19.48;75.49;98789.06;126174;1093;22787;-81
2021/07/08 02:10:22;;;;;;;8.40;5.63;;;;;;;19.50;75.54;98793.17;126168;1093;22782;-81
2021/07/08 02:12:50;;;;;;;9.08;5.03;;;;;;;19.51;75.53;98792.06;126203;1093;22869;-81
2021/07/08 02:15:32;;;;;;;8.40;5.03;;;;;;;19.50;75.35;98795.93;126197;1093;24543;-81
2021/07/08 02:18:14;;;;;;;9.65;5.35;;;;;;;19.48;75.49;98803.70;126186;1093;22760;-81
2021/07/08 02:20:56;;;;;;;7.75;4.70;;;;;;;19.43;75.52;98800.18;126166;1093;22912;-81
2021/07/08 02:23:38;;;;;;;12.28;6.08;;;;;;;19.41;75.71;98805.18;126068;1093;25871;-81
2021/07/08 02:26:07;;;;;;;6.97;6.37;;;;;;;19.39;75.96;98804.63;126131;1093;22816;-81
2021/07/08 02:28:49;;;;;;;11.70;6.40;;;;;;;19.34;76.09;98808.29;126154;1093;22758;-81
2021/07/08 02:31:17;;;;;;;13.60;6.18;;;;;;;19.31;76.15;98803.34;126185;1093;24395;-81
2021/07/08 02:33:45;;;;;;;10.30;6.25;;;;;;;19.29;76.33;98811.11;126159;1093;22811;-81
2021/07/08 02:36:13;;;;;;;8.60;6.30;;;;;;;19.22;76.48;98816.98;126147;1093;22760;-81
2021/07/08 02:38:54;;;;;;;7.30;6.40;;;;;;;19.16;76.50;98807.12;126194;1093;25487;-81
2021/07/08 02:41:36;;;;;;;7.88;6.55;;;;;;;19.13;76.83;98816.79;126177;1093;26360;-81
2021/07/08 02:44:04;;;;;;;9.18;6.38;;;;;;;19.11;76.75;98813.50;126172;1093;27326;-81
2021/07/08 02:46:32;;;;;;;9.57;5.77;;;;;;;19.08;76.57;98802.23;126139;1093;22911;-81
2021/07/08 02:48:59;;;;;;;6.68;5.83;;;;;;;19.08;77.05;98814.08;126229;1093;23704;-81
2021/07/08 02:51:41;;;;;;;10.85;6.15;;;;;;;19.08;77.23;98816.84;126133;1093;26226;-81
2021/07/08 02:54:09;;;;;;;11.05;6.48;;;;;;;19.12;77.27;98817.92;126186;1093;22795;-81
2021/07/08 02:56:50;;;;;;;12.78;6.58;;;;;;;19.13;76.99;98825.08;126100;1093;22742;-81
2021/07/08 02:59:18;;;;;;;8.38;5.78;;;;;;;19.16;77.27;98820.92;126174;1093;22788;-81
2021/07/08 03:01:59;;;;;;;7.80;5.95;;;;;;;19.18;76.95;98823.39;126156;1093;26277;-81
2021/07/08 03:04:27;;;;;;;9.40;5.80;;;;;;;19.17;77.10;98833.59;126199;1093;24556;-81
2021/07/08 03:07:08;;;;;;;7.68;6.58;;;;;;;19.20;77.05;98833.02;126161;1093;22764;-81
2021/07/08 03:09:36;;;;;;;8.30;6.15;;;;;;;19.21;77.21;98831.91;126193;1092;22803;-81
2021/07/08 03:12:17;;;;;;;10.03;5.80;;;;;;;19.25;77.07;98832.97;126251;1093;24717;-81
2021/07/08 03:14:58;;;;;;;8.28;6.00;;;;;;;19.30;77.06;98835.67;126366;1093;23278;-81
2021/07/08 03:17:41;;;;;;;10.45;6.28;;;;;;;19.32;77.07;98838.14;126171;1093;22747;-81
2021/07/08 03:20:26;;;;;;;8.45;5.30;;;;;;;19.32;76.78;98844.48;126239;1093;22754;-81
2021/07/08 03:23:07;;;;;;;10.28;5.35;;;;;;;19.32;76.83;98844.48;126109;1093;22758;-81
2021/07/08 03:25:49;;;;;;;7.58;5.28;;;;;;;19.32;76.70;98846.43;126196;1093;24556;-81
2021/07/08 03:28:16;;;;;;;8.40;5.08;;;;;;;19.33;76.71;98845.30;126120;1093;27538;-81
2021/07/08 03:30:58;;;;;;;7.58;5.73;;;;;;;19.32;76.64;98843.67;126199;1093;22790;-81
2021/07/08 03:33:26;;;;;;;7.40;5.50;;;;;;;19.30;76.71;98843.95;126240;1093;22777;-81
2021/07/08 03:35:54;;;;;;;8.30;5.78;;;;;;;19.30;76.54;98841.20;126213;1092;26137;-81
2021/07/08 03:38:21;;;;;;;11.63;5.10;;;;;;;19.31;76.63;98850.30;126189;1093;22854;-81
2021/07/08 03:40:49;;;;;;;8.13;5.10;;;;;;;19.33;76.71;98846.11;126179;1093;22877;-81
2021/07/08 03:43:30;;;;;;;6.90;5.15;;;;;;;19.36;76.43;98855.77;126194;1092;22908;-81
2021/07/08 03:45:58;;;;;;;10.43;5.23;;;;;;;19.38;76.67;98856.28;126197;1093;22808;-80
2021/07/08 03:48:39;;;;;;;7.55;5.80;;;;;;;19.33;76.27;98859.91;126203;1093;22942;-81
2021/07/08 03:51:20;;;;;;;8.80;5.28;;;;;;;19.34;76.39;98856.05;126084;1093;22922;-81
2021/07/08 03:54:02;;;;;;;9.08;5.25;;;;;;;19.32;76.34;98860.23;126205;1093;22766;-81
2021/07/08 03:56:43;;;;;;;9.30;5.57;;;;;;;19.24;76.56;98872.72;126170;1093;22751;-80
2021/07/08 03:59:11;;;;;;;9.65;5.30;;;;;;;19.23;76.79;98864.73;126223;1093;22784;-81
2021/07/08 04:01:39;;;;;;;9.47;5.23;;;;;;;19.20;77.00;98871.67;126220;1093;26382;-80
2021/07/08 04:04:21;;;;;;;8.73;5.60;;;;;;;19.21;77.17;98865.05;126206;1093;22768;-81
2021/07/08 04:06:49;;;;;;;10.30;5.83;;;;;;;19.27;77.27;98872.15;126158;1093;23888;-81
2021/07/08 04:09:16;;;;;;;11.28;6.20;;;;;;;19.35;76.88;98876.20;126152;1093;26261;-80
2021/07/08 04:11:45;;;;;;;10.38;6.25;;;;;;;19.41;76.96;98883.33;126151;1093;22923;-81
2021/07/08 04:14:26;;;;;;;10.55;6.50;;;;;;;19.44;76.57;98876.38;126151;1093;22837;-81
2021/07/08 04:17:07;;;;;;;11.05;6.75;;;;;;;19.50;76.62;98876.04;126189;1093;22784;-81
2021/07/08 04:19:49;;;;;;;11.07;6.13;;;;;;;19.52;76.64;98884.03;126175;1093;22800;-81
2021/07/08 04:22:17;;;;;;;16.05;6.43;;;;;;;19.58;76.31;98879.27;126008;1093;22726;-81
2021/07/08 04:24:58;;;;;;;10.20;6.73;;;;;;;19.64;76.35;98883.63;126151;1091;23004;-81
2021/07/08 04:27:27;;;;;;;7.83;6.33;;;;;;;19.69;76.19;98881.63;126146;1093;22787;-80
2021/07/08 04:29:55;;;;;;;12.08;6.13;;;;;;;19.69;75.92;98889.92;126270;1093;22781;-81
2021/07/08 04:32:22;;;;;;;8.83;7.00;;;;;;;19.72;75.58;98885.73;126143;1093;25973;-80
2021/07/08 04:34:50;;;;;;;9.25;6.48;;;;;;;19.73;75.49;98879.09;126212;1093;22784;-81
2021/07/08 04:37:17;;;;;;;11.15;6.53;;;;;;;19.78;75.41;98876.30;126153;1093;22754;-80
2021/07/08 04:39:59;;;;;;;10.18;5.85;;;;;;;19.83;75.23;98878.16;126266;1093;22745;-81
2021/07/08 04:42:26;;;;;;;9.15;6.40;;;;;;;19.89;75.27;98880.58;126473;1093;22793;-81
2021/07/08 04:44:54;;;;;;;10.13;7.13;;;;;;;19.91;74.81;98881.09;126486;1092;23696;-80
2021/07/08 04:47:40;;;;;;;11.58;6.53;;;;;;;19.97;74.71;98875.50;126468;1092;22762;-80
2021/07/08 04:50:23;;;;;;;10.03;5.85;;;;;;;19.99;74.39;98870.49;126522;1093;22760;-81
2021/07/08 04:53:04;;;;;;;11.13;5.95;;;;;;;20.03;74.53;98871.56;126629;1093;22762;-81
2021/07/08 04:55:32;;;;;;;7.93;5.55;;;;;;;20.05;74.10;98867.38;126313;1093;22749;-81
2021/07/08 04:58:14;;;;;;;9.33;5.50;;;;;;;20.07;74.09;98869.84;126447;1093;22784;-81
2021/07/08 05:00:41;;;;;;;8.15;5.70;;;;;;;20.12;74.33;98866.19;126474;1093;24767;-80
2021/07/08 05:03:09;;;;;;;9.03;5.98;;;;;;;20.12;73.71;98872.54;126522;1093;22783;-81
2021/07/08 05:05:37;;;;;;;9.23;5.90;;;;;;;20.12;73.49;98872.54;126509;1092;22778;-81
2021/07/08 05:08:06;;;;;;;10.60;5.50;;;;;;;20.13;73.81;98867.82;126530;1093;24814;-80
2021/07/08 05:10:33;;;;;;;11.13;5.83;;;;;;;20.15;73.82;98874.72;126557;1093;22885;-80
2021/07/08 05:13:15;;;;;;;11.50;5.65;;;;;;;20.16;73.66;98881.06;126418;1093;23619;-80
2021/07/08 05:15:42;;;;;;;11.93;6.05;;;;;;;20.19;73.52;98872.98;126516;1092;24137;-80
2021/07/08 05:18:10;;;;;;;10.75;6.45;;;;;;;20.19;73.09;98874.94;126587;1092;22774;-80
2021/07/08 05:20:52;;;;;;;9.68;6.08;;;;;;;20.19;73.13;98874.94;126433;1093;22748;-82
2021/07/08 05:23:25;;;;;;;13.38;6.48;;;;;;;20.21;73.35;98881.80;126499;1093;22761;-80
2021/07/08 05:25:52;;;;;;;14.30;6.08;;;;;;;20.24;73.04;98877.64;126470;1093;25864;-80
2021/07/08 05:28:21;;;;;;;9.20;6.65;;;;;;;20.25;73.07;98879.27;126592;1093;22796;-80
2021/07/08 05:31:02;;;;;;;9.68;6.03;;;;;;;20.28;73.00;98890.55;126468;1092;22796;-80
2021/07/08 05:33:43;;;;;;;14.03;5.95;;;;;;;20.35;73.13;98890.19;126535;1093;22800;-81
2021/07/08 05:36:25;;;;;;;16.15;6.48;;;;;;;20.42;73.23;98885.09;126385;1093;22760;-80
2021/07/08 05:38:52;;;;;;;10.50;6.80;;;;;;;20.47;72.92;98885.02;126544;1092;23546;-81
2021/07/08 05:41:34;;;;;;;12.40;6.55;;;;;;;20.52;72.72;98875.80;126537;1093;22765;-81
2021/07/08 05:44:01;;;;;;;14.93;6.33;;;;;;;20.57;72.75;98880.45;126442;1091;27460;-81
2021/07/08 05:46:43;;;;;;;14.35;5.95;;;;;;;20.61;72.90;98884.25;126583;1092;22757;-81
2021/07/08 05:49:24;;;;;;;8.18;5.93;;;;;;;20.69;72.46;98891.91;126429;1092;22762;-81
2021/07/08 05:51:52;;;;;;;9.33;5.50;;;;;;;20.73;72.38;98892.13;126463;1093;22787;-81
2021/07/08 05:54:33;;;;;;;14.05;6.25;;;;;;;20.76;72.33;98886.81;126444;1093;22902;-80
2021/07/08 05:57:01;;;;;;;12.07;6.00;;;;;;;20.83;72.12;98894.73;126454;1092;22828;-80
2021/07/08 05:59:29;;;;;;;11.98;6.30;;;;;;;20.91;72.06;98898.75;126480;1092;22761;-80
2021/07/08 06:01:57;;;;;;;11.47;5.70;;;;;;;20.98;71.83;98901.95;126427;1093;22912;-80
2021/07/08 06:04:24;;;;;;;9.45;5.88;;;;;;;21.05;71.41;98897.69;126405;1093;23709;-81
2021/07/08 06:06:52;;;;;;;14.30;6.60;;;;;;;21.12;71.44;98894.50;126568;1093;22756;-81
2021/07/08 06:09:34;;;;;;;9.43;6.20;;;;;;;21.20;71.07;98888.27;126576;1093;22755;-81
2021/07/08 06:12:01;;;;;;;9.98;5.80;;;;;;;21.27;71.12;98893.42;126568;1093;26280;-81
2021/07/08 06:14:42;;;;;;;13.28;6.50;;;;;;;21.31;70.64;98880.59;126287;1093;22774;-80
2021/07/08 06:17:10;;;;;;;12.50;6.30;;;;;;;21.37;70.50;98882.16;126087;1093;25129;-80
2021/07/08 06:19:38;;;;;;;10.70;6.13;;;;;;;21.44;70.44;98876.19;126172;1093;26248;-80
2021/07/08 06:22:19;;;;;;;9.83;5.98;;;;;;;21.54;70.35;98891.84;126213;1092;24156;-80
2021/07/08 06:24:47;;;;;;;12.10;6.00;;;;;;;21.61;70.13;98887.52;126146;1093;22775;-81
2021/07/08 06:27:17;;;;;;;13.15;6.60;;;;;;;21.65;69.55;98876.64;126247;1093;27189;-81
2021/07/08 06:29:44;;;;;;;9.65;6.40;;;;;;;21.66;69.45;98871.94;126181;1093;22808;-81
2021/07/08 06:32:16;;;;;;;11.90;5.60;;;;;;;21.70;69.71;98868.22;126146;1093;22920;-81
2021/07/08 06:34:58;;;;;;;8.70;5.63;;;;;;;21.78;69.51;98877.79;126137;1093;22944;-81
2021/07/08 06:37:39;;;;;;;13.28;6.38;;;;;;;21.84;69.12;98893.17;126135;1093;22866;-81
2021/07/08 06:40:08;;;;;;;12.83;6.08;;;;;;;21.91;69.14;98890.80;126189;1093;25864;-81
2021/07/08 06:42:36;;;;;;;12.83;5.98;;;;;;;22.00;69.63;98877.03;126496;1093;22784;-81
2021/07/08 06:45:06;;;;;;;12.15;5.83;;;;;;;22.06;69.18;98883.28;126535;1093;22752;-81
2021/07/08 06:47:40;;;;;;;13.33;6.08;;;;;;;22.12;69.07;98880.09;126686;1093;26287;-81
2021/07/08 06:50:22;;;;;;;13.53;6.45;;;;;;;22.27;68.79;98886.47;126741;1093;22758;-81
2021/07/08 06:52:49;;;;;;;10.58;6.05;;;;;;;22.46;67.73;98875.22;126651;1092;26486;-81
2021/07/08 06:55:17;;;;;;;11.78;5.85;;;;;;;22.64;67.44;98862.29;126664;1092;22765;-81
2021/07/08 06:57:59;;;;;;;10.60;6.20;;;;;;;22.82;66.75;98880.70;126746;1093;25980;-81
2021/07/08 07:00:41;;;;;;;9.75;5.03;;;;;;;23.04;66.85;98874.33;126656;1093;23325;-81
2021/07/08 07:03:09;;;;;;;10.30;6.35;;;;;;;23.23;66.23;98865.81;126669;1093;22805;-81
2021/07/08 07:05:37;;;;;;;21.10;5.98;;;;;;;23.36;65.24;98863.27;126636;1093;24424;-81
2021/07/08 07:08:18;;;;;;;11.50;6.43;;;;;;;23.46;65.04;98860.17;126269;1093;22791;-81
2021/07/08 07:10:46;;;;;;;14.73;6.33;;;;;;;23.57;64.66;98857.92;126146;1092;22877;-81
2021/07/08 07:13:14;;;;;;;10.90;6.10;;;;;;;23.67;63.97;98860.42;126133;1093;22797;-81
2021/07/08 07:15:42;;;;;;;9.65;5.40;;;;;;;23.86;64.42;98860.19;126187;1093;22781;-81
2021/07/08 07:18:10;;;;;;;14.25;5.88;;;;;;;23.99;64.56;98864.81;126235;1093;27312;-81
2021/07/08 07:20:52;;;;;;;7.93;5.68;;;;;;;24.05;64.04;98866.28;126235;1093;22941;-81
2021/07/08 07:23:33;;;;;;;9.15;5.60;;;;;;;24.16;63.53;98865.98;126123;1093;27285;-81
2021/07/08 07:26:01;;;;;;;11.90;5.80;;;;;;;24.25;63.78;98864.83;126155;1093;22812;-81
2021/07/08 07:28:29;;;;;;;12.90;5.10;;;;;;;24.39;63.56;98859.11;126199;1093;22784;-81
2021/07/08 07:31:10;;;;;;;9.73;5.23;;;;;;;24.57;63.11;98846.03;126123;1093;27338;-81
2021/07/08 07:33:38;;;;;;;9.03;4.77;;;;;;;24.69;63.25;98837.02;126241;1093;22759;-82
2021/07/08 07:36:06;;;;;;;7.85;4.80;;;;;;;24.81;62.66;98851.09;126189;1093;22835;-81
2021/07/08 07:38:47;;;;;;;11.83;4.88;;;;;;;24.97;62.20;98853.38;126178;1093;22732;-81
2021/07/08 07:41:29;;;;;;;9.88;5.68;;;;;;;25.03;62.04;98849.24;126154;1093;22918;-81
2021/07/08 07:43:57;;;;;;;14.60;5.45;;;;;;;25.08;61.49;98843.50;126326;1093;24570;-81
2021/07/08 07:46:25;;;;;;;10.03;6.63;;;;;;;25.11;60.29;98844.82;126102;1093;22757;-81
2021/07/08 07:48:53;;;;;;;11.50;7.03;;;;;;;25.19;59.57;98843.95;126356;1093;22760;-82
2021/07/08 07:51:22;;;;;;;11.43;6.23;;;;;;;25.30;59.74;98830.50;126175;1092;24438;-82
2021/07/08 07:53:49;;;;;;;;;;;;;;;25.43;59.49;98825.84;126192;1093;22841;-82
2021/07/08 07:56:17;;;;;;;11.53;6.43;;;;;;;25.54;60.82;98819.56;126195;1093;21562;-82
2021/07/08 07:58:59;;;;;;;14.23;5.68;;;;;;;25.79;60.19;98818.95;126159;1093;22765;-82
2021/07/08 08:01:26;;;;;;;9.78;5.43;;;;;;;25.99;59.81;98831.33;126166;1093;22937;-82
2021/07/08 08:03:56;;;;;;;12.95;6.00;;;;;;;26.07;58.62;98838.83;126147;1093;25867;-81
2021/07/08 08:09:11;;;;;;;10.43;5.73;;;;;;;26.23;58.08;98825.90;126176;1092;22795;-82
2021/07/08 08:11:40;;;;;;;8.95;4.88;;;;;;;26.40;59.29;98827.74;126115;1093;22805;-81
2021/07/08 08:14:07;;;;;;;10.33;5.97;;;;;;;26.58;58.58;98827.56;126470;1093;27150;-82
2021/07/08 08:16:36;;;;;;;11.50;5.10;;;;;;;26.78;57.73;98828.74;126291;1092;22773;-81
2021/07/08 08:19:03;;;;;;;11.00;5.80;;;;;;;26.92;57.12;98831.23;126656;1093;26237;-82
2021/07/08 08:21:32;;;;;;;14.50;6.30;;;;;;;27.03;56.31;98822.05;126285;1093;22840;-82
2021/07/08 08:23:59;;;;;;;15.33;5.17;;;;;;;27.18;55.88;98819.74;126209;1093;26493;-82
2021/07/08 08:26:41;;;;;;;13.25;6.30;;;;;;;27.30;56.24;98822.59;126158;1093;23263;-82
2021/07/08 08:29:25;;;;;;;14.33;6.30;;;;;;;27.44;55.89;98816.66;126194;1093;22773;-82
2021/07/08 08:32:07;;;;;;;14.55;6.00;;;;;;;27.55;56.21;98812.25;126197;1093;22918;-82
2021/07/08 08:34:35;;;;;;;9.03;6.03;;;;;;;27.55;55.90;98812.25;126244;1093;26235;-82
2021/07/08 08:37:04;;;;;;;12.17;5.77;;;;;;;27.61;55.87;98810.03;126251;1093;22781;-82
2021/07/08 08:39:31;;;;;;;;;;;;;;;27.70;55.28;98813.52;126353;1093;27329;-81
2021/07/08 08:41:59;;;;;;;7.80;5.83;;;;;;;27.82;54.98;98812.70;126280;1093;21455;-81
2021/07/08 08:44:27;;;;;;;11.80;6.50;;;;;;;27.86;54.59;98821.21;126258;1093;22923;-81
2021/07/08 08:46:55;;;;;;;11.47;6.63;;;;;;;27.89;53.64;98820.48;126310;1093;22835;-81
2021/07/08 08:49:41;;;;;;;9.30;7.10;;;;;;;27.91;54.33;98815.41;126255;1093;22784;-82
2021/07/08 08:52:10;;;;;;;9.00;6.70;;;;;;;28.00;53.86;98816.08;126291;1093;22739;-81
2021/07/08 08:54:52;;;;;;;9.40;6.33;;;;;;;28.14;54.28;98813.72;126225;1093;26305;-82
2021/07/08 08:57:34;;;;;;;7.93;6.28;;;;;;;28.28;54.57;98810.53;126169;1093;25948;-81
2021/07/08 09:00:24;;;;;;;10.05;6.23;;;;;;;28.40;53.75;98813.30;126109;1093;22855;-82
2021/07/08 09:03:13;;;;;;;7.58;6.30;;;;;;;28.56;53.75;98806.95;126319;1093;22754;-82
2021/07/08 09:06:09;;;;;;;10.13;6.80;;;;;;;28.73;54.18;98800.22;126220;1093;22916;-82
2021/07/08 09:08:44;;;;;;;9.10;6.47;;;;;;;28.86;53.23;98801.80;126330;1093;22698;-82
2021/07/08 09:11:16;;;;;;;12.05;6.75;;;;;;;28.88;52.04;98810.66;126279;1093;22832;-82
2021/07/08 09:13:46;;;;;;;14.15;6.58;;;;;;;28.93;52.68;98792.75;126279;1093;24402;-82
2021/07/08 09:16:20;;;;;;;11.48;6.55;;;;;;;29.05;52.70;98791.86;126197;1093;27333;-82
2021/07/08 09:19:09;;;;;;;10.23;6.60;;;;;;;29.13;52.60;98785.27;126256;1093;25973;-82
2021/07/08 09:21:59;;;;;;;10.10;6.18;;;;;;;29.21;51.78;98789.91;126203;1093;22915;-83
2021/07/08 09:24:41;;;;;;;9.93;6.33;;;;;;;29.27;52.26;98785.67;126275;1091;22795;-83
2021/07/08 09:27:11;;;;;;;8.80;6.40;;;;;;;29.32;52.44;98784.56;126197;1093;24559;-82
2021/07/08 09:29:54;;;;;;;11.43;6.85;;;;;;;29.40;52.43;98772.34;126274;1093;22812;-82
2021/07/08 09:32:24;;;;;;;9.68;6.60;;;;;;;29.57;52.79;98773.14;126274;1092;26427;-82
2021/07/08 09:34:59;;;;;;;11.70;5.97;;;;;;;29.75;52.34;98779.16;126086;1093;22766;-83
2021/07/08 09:37:41;;;;;;;11.18;6.65;;;;;;;29.85;52.08;98778.63;126170;1093;22767;-83
2021/07/08 09:40:23;;;;;;;12.13;7.03;;;;;;;29.94;50.78;98782.05;126276;1093;22785;-83
2021/07/08 09:43:06;;;;;;;10.48;7.00;;;;;;;30.06;51.40;98781.11;126264;1093;22751;-83
2021/07/08 09:45:49;;;;;;;12.50;6.33;;;;;;;30.18;49.83;98775.36;126244;1093;22781;-83
2021/07/08 09:48:24;;;;;;;7.50;6.43;;;;;;;30.28;49.71;98771.16;126249;1093;22805;-80
2021/07/08 09:50:55;;;;;;;11.13;6.90;;;;;;;30.36;50.06;98763.72;126288;1093;22815;-83
2021/07/08 09:53:26;;;;;;;9.78;6.43;;;;;;;30.40;50.24;98758.97;126252;1093;22835;-83
2021/07/08 09:58:54;;;;;;;11.70;6.95;;;;;;;30.70;50.21;98758.34;126193;1093;22809;-83
2021/07/08 10:01:40;;;;;;;8.00;6.50;;;;;;;30.87;49.83;98754.25;126272;1093;26396;-83
2021/07/08 10:04:22;;;;;;;9.83;6.85;;;;;;;31.08;49.62;98759.48;126238;1093;26235;-83
2021/07/08 10:06:54;;;;;;;11.27;7.07;;;;;;;31.23;48.80;98762.16;126251;1092;27141;-83
2021/07/08 10:09:25;;;;;;;11.05;6.93;;;;;;;31.33;48.45;98754.27;126251;1093;22781;-83
2021/07/08 10:11:56;;;;;;;8.73;6.88;;;;;;;31.40;48.54;98754.38;126088;1093;22873;-83
2021/07/08 10:14:24;;;;;;;8.00;6.80;;;;;;;31.49;48.55;98749.33;126181;1093;27185;-83
2021/07/08 10:17:09;;;;;;;8.87;6.97;;;;;;;31.45;47.86;98750.41;126183;1093;22854;-83
2021/07/08 10:19:38;;;;;;;11.13;7.33;;;;;;;31.33;48.03;98745.83;126252;1093;27294;-83
2021/07/08 10:22:20;;;;;;;9.18;6.88;;;;;;;31.39;47.98;98753.58;126251;1092;22817;-83
2021/07/08 10:24:50;;;;;;;12.03;6.93;;;;;;;31.50;48.67;98750.13;126280;1093;26248;-80
2021/07/08 10:27:21;;;;;;;7.48;6.75;;;;;;;31.39;48.15;98744.30;126216;1092;22768;-83
2021/07/08 10:29:50;;;;;;;8.63;7.03;;;;;;;31.34;48.16;98739.83;126226;1093;22938;-83
2021/07/08 10:32:20;;;;;;;8.90;7.00;;;;;;;31.50;48.01;98742.52;126186;1093;22812;-83
2021/07/08 10:34:51;;;;;;;8.85;6.20;;;;;;;31.72;47.65;98745.65;126283;1093;24440;-80
2021/07/08 10:37:25;;;;;;;13.05;7.33;;;;;;;31.89;46.81;98732.99;126205;1093;24303;-83
2021/07/08 10:40:26;;;;;;;8.80;6.20;;;;;;;31.97;47.03;98732.70;126176;1093;27220;-83
2021/07/08 10:43:12;;;;;;;10.80;6.85;;;;;;;32.13;47.28;98729.72;126173;1093;24424;-83
2021/07/08 10:46:05;;;;;;;8.80;6.65;;;;;;;32.15;47.18;98726.53;126281;1093;24559;-83
2021/07/08 10:48:49;;;;;;;6.60;5.95;;;;;;;32.23;47.39;98727.41;126237;1093;22769;-83
2021/07/08 10:51:38;;;;;;;8.53;6.85;;;;;;;32.19;46.10;98723.75;126282;1093;22734;-83
2021/07/08 10:54:27;;;;;;;9.50;6.05;;;;;;;32.30;46.28;98717.05;126268;1093;25983;-83
2021/07/08 10:57:36;;;;;;;10.65;7.28;;;;;;;32.34;46.03;98717.90;126237;1093;24404;-83
2021/07/08 11:00:10;;;;;;;7.28;6.28;;;;;;;32.34;45.13;98720.72;126241;1093;22805;-83
2021/07/08 11:02:52;;;;;;;9.48;6.38;;;;;;;32.35;46.00;98718.70;126282;1093;22761;-83
2021/07/08 11:05:56;;;;;;;10.50;6.60;;;;;;;32.42;45.89;98710.36;126225;1093;22921;-83
2021/07/08 11:08:50;;;;;;;6.95;6.30;;;;;;;32.51;44.81;98713.67;126242;1093;26242;-83
2021/07/08 11:11:22;;;;;;;9.83;6.63;;;;;;;32.56;44.25;98715.31;126246;1092;26282;-83
2021/07/08 11:14:16;;;;;;;13.20;6.73;;;;;;;32.59;45.19;98711.76;126210;1093;24406;-83
2021/07/08 11:16:47;;;;;;;9.23;6.40;;;;;;;32.82;45.27;98722.06;126228;1093;22777;-83
2021/07/08 11:19:29;;;;;;;9.33;6.90;;;;;;;33.03;44.20;98713.78;126282;1093;24390;-83
2021/07/08 11:22:24;;;;;;;10.38;6.13;;;;;;;33.19;44.01;98710.72;126154;1093;22778;-83
2021/07/08 11:24:54;;;;;;;9.78;6.90;;;;;;;33.17;42.88;98706.69;126314;1093;22788;-83
2021/07/08 11:27:21;;;;;;;7.50;6.53;;;;;;;33.20;43.92;98706.71;126308;1093;22912;-83
2021/07/08 11:29:51;;;;;;;7.15;6.35;;;;;;;33.38;43.92;98689.90;126233;1093;22781;-83
2021/07/08 11:38:00;;;;;;;;;;;;;;;33.84;43.80;98694.23;126229;1093;26325;-83
2021/07/08 11:40:48;;;;;;;8.13;6.35;;;;;;;33.98;43.09;98687.82;126176;1092;21459;-83
2021/07/08 11:43:33;;;;;;;7.60;5.90;;;;;;;34.17;43.29;98693.14;126272;1093;22751;-83
2021/07/08 11:46:19;;;;;;;11.30;7.08;;;;;;;34.20;42.84;98686.73;126241;1093;22849;-83
2021/07/08 11:49:03;;;;;;;9.50;6.00;;;;;;;34.32;42.11;98679.91;126210;1092;22755;-83
2021/07/08 11:51:34;;;;;;;11.10;6.10;;;;;;;34.43;42.25;98679.94;126285;1092;22863;-83
2021/07/08 11:54:15;;;;;;;8.95;6.00;;;;;;;34.50;42.86;98681.97;126238;1093;22757;-83
2021/07/08 11:56:43;;;;;;;6.55;5.70;;;;;;;34.60;42.05;98678.33;126201;1093;22764;-83
2021/07/08 11:59:24;;;;;;;7.43;6.08;;;;;;;34.59;41.67;98668.25;126033;1093;22842;-83
2021/07/08 12:01:52;;;;;;;8.18;6.48;;;;;;;34.68;42.07;98674.31;126174;1093;22792;-83
2021/07/08 12:04:33;;;;;;;7.03;6.20;;;;;;;34.75;41.28;98676.38;126270;1093;22777;-83
2021/07/08 12:07:05;;;;;;;17.88;6.68;;;;;;;34.83;39.98;98671.52;126213;1093;22862;-83
2021/07/08 12:09:48;;;;;;;7.60;6.13;;;;;;;34.85;40.46;98666.27;126297;1092;22723;-83